Time;durP1;ratioP1;P1;durP2;ratioP2;P2;SDS_P1;SDS_P2;PMS_P1;PMS_P2;Temp;Humidity;BMP_temperature;BMP_pressure;BME280_temperature;BME280_humidity;BME280_pressure;Samples;Min_cycle;Max_cycle;Signal;HPM_P1;HPM_P2
2023/07/21 00:00:10;;;;;;;4.77;3.10;;;;;;;-145.18;100.00;46676.03;5071304;28;20031;-59
2023/07/21 00:02:35;;;;;;;6.68;3.35;;;;;;;-145.18;100.00;46691.66;5069155;28;20028;-60
2023/07/21 00:05:00;;;;;;;5.00;3.43;;;;;;;-145.18;100.00;46677.97;5070510;28;20064;-59
2023/07/21 00:07:26;;;;;;;3.40;3.07;;;;;;;-145.18;100.00;46691.66;5070941;28;20090;-59
2023/07/21 00:09:52;;;;;;;5.93;2.90;;;;;;;-145.18;100.00;46693.59;5070887;28;20037;-60
2023/07/21 00:12:17;;;;;;;4.77;3.73;;;;;;;-145.18;100.00;46697.50;5067453;28;20062;-59
2023/07/21 00:14:42;;;;;;;4.57;2.97;;;;;;;-145.18;100.00;46699.47;5070947;28;20024;-60
2023/07/21 00:17:08;;;;;;;6.70;3.57;;;;;;;-145.18;100.00;46701.41;5069334;28;20451;-59
2023/07/21 00:19:33;;;;;;;4.63;3.13;;;;;;;-145.18;100.00;46697.50;5070028;28;20081;-59
2023/07/21 00:21:59;;;;;;;6.17;3.97;;;;;;;-145.18;100.00;46699.47;5072538;28;20075;-59
2023/07/21 00:24:24;;;;;;;6.23;3.80;;;;;;;-145.18;100.00;46703.38;5074419;28;20040;-59
2023/07/21 00:26:52;;;;;;;5.83;3.80;;;;;;;-145.18;100.00;46699.47;5073997;28;20119;-59
2023/07/21 00:29:18;;;;;;;4.50;3.10;;;;;;;-145.18;100.00;46703.38;5074444;28;20487;-59
2023/07/21 00:31:46;;;;;;;5.17;3.70;;;;;;;-145.18;100.00;46695.56;5073486;28;20028;-59
2023/07/21 00:34:12;;;;;;;4.87;3.27;;;;;;;-145.18;100.00;46695.56;5074430;28;20146;-59
2023/07/21 00:36:38;;;;;;;8.87;3.80;;;;;;;-145.18;100.00;46699.47;5073885;28;20472;-59
2023/07/21 00:39:03;;;;;;;6.30;3.87;;;;;;;-145.18;100.00;46693.59;5073886;28;20059;-59
2023/07/21 00:41:28;;;;;;;5.43;3.57;;;;;;;-145.18;100.00;46689.69;5074430;28;20425;-59
2023/07/21 00:43:54;;;;;;;5.97;3.73;;;;;;;-145.18;100.00;46685.78;5073697;28;20443;-59
2023/07/21 00:46:20;;;;;;;5.33;3.80;;;;;;;-145.18;100.00;46685.78;5073791;28;20111;-59
2023/07/21 00:48:45;;;;;;;9.30;3.40;;;;;;;-145.18;100.00;46679.94;5073881;28;20032;-59
2023/07/21 00:51:10;;;;;;;4.93;3.40;;;;;;;-145.18;100.00;46681.88;5070114;28;20032;-59
2023/07/21 00:53:36;;;;;;;5.97;3.70;;;;;;;-145.18;100.00;46674.06;5076915;28;20056;-59
2023/07/21 00:56:02;;;;;;;5.23;4.07;;;;;;;-145.18;100.00;46670.16;5073416;28;20036;-59
2023/07/21 00:58:30;;;;;;;6.63;3.80;;;;;;;-145.18;100.00;46668.22;5073245;28;20028;-59
2023/07/21 01:00:55;;;;;;;5.67;3.60;;;;;;;-145.18;100.00;46666.25;5073228;28;20032;-60
2023/07/21 01:03:21;;;;;;;3.77;3.30;;;;;;;-145.18;100.00;46666.25;5073283;28;20029;-59
2023/07/21 01:05:50;;;;;;;4.53;3.40;;;;;;;-145.18;100.00;46660.41;5073452;28;20033;-59
2023/07/21 01:08:17;;;;;;;4.77;3.67;;;;;;;-145.18;100.00;46660.41;5073714;28;20036;-59
2023/07/21 01:10:43;;;;;;;7.93;4.00;;;;;;;-145.18;100.00;46662.34;5073078;28;21579;-60
2023/07/21 01:13:10;;;;;;;5.27;3.43;;;;;;;-145.18;100.00;46660.41;5068855;28;20032;-59
2023/07/21 01:15:41;;;;;;;5.57;3.63;;;;;;;-145.18;100.00;46656.50;5073336;28;20060;-60
2023/07/21 01:18:08;;;;;;;4.77;3.70;;;;;;;-145.18;100.00;46658.44;5073705;28;20036;-58
2023/07/21 01:20:34;;;;;;;4.70;3.43;;;;;;;-145.18;100.00;46662.34;5072779;28;20036;-59
2023/07/21 01:23:29;;;;;;;6.07;3.93;;;;;;;-145.18;100.00;46660.41;5072311;28;20033;-59
2023/07/21 01:25:55;;;;;;;5.17;3.80;;;;;;;-145.18;100.00;46666.25;5053628;28;20496;-59
2023/07/21 01:28:22;;;;;;;7.50;4.13;;;;;;;-145.18;100.00;46664.31;5072527;28;20535;-59
2023/07/21 01:30:49;;;;;;;7.80;5.07;;;;;;;-145.18;100.00;46660.41;5073134;28;20046;-59
2023/07/21 01:33:20;;;;;;;6.87;3.87;;;;;;;-145.18;100.00;46658.44;5073054;28;20020;-59
2023/07/21 01:35:48;;;;;;;7.20;4.37;;;;;;;-145.18;100.00;46660.41;5070501;28;20032;-59
2023/07/21 01:38:15;;;;;;;5.83;4.30;;;;;;;-145.18;100.00;46658.44;5071565;28;20089;-62
2023/07/21 01:40:41;;;;;;;6.70;4.30;;;;;;;-145.18;100.00;46654.53;5072768;28;20039;-62
2023/07/21 01:43:07;;;;;;;5.97;4.30;;;;;;;-145.18;100.00;46658.44;5071180;28;20415;-62
2023/07/21 01:45:33;;;;;;;9.97;4.83;;;;;;;-145.18;100.00;46654.53;5072519;28;20047;-59
2023/07/21 01:47:59;;;;;;;5.70;4.03;;;;;;;-145.18;100.00;46656.50;5072608;28;20024;-62
2023/07/21 01:50:27;;;;;;;5.10;3.80;;;;;;;-145.18;100.00;46654.53;5072751;28;20036;-62
2023/07/21 01:52:53;;;;;;;6.80;4.73;;;;;;;-145.18;100.00;46654.53;5071562;28;20443;-62
2023/07/21 01:55:23;;;;;;;6.30;4.73;;;;;;;-145.18;100.00;46650.63;5074502;28;20610;-62
2023/07/21 01:57:57;;;;;;;7.47;4.90;;;;;;;-145.18;100.00;46654.53;5071140;28;20033;-62
2023/07/21 02:00:28;;;;;;;6.43;4.67;;;;;;;-145.18;100.00;46652.59;5072630;28;20081;-62
2023/07/21 02:02:55;;;;;;;7.80;5.00;;;;;;;-145.18;100.00;46648.69;5072228;28;20041;-62
2023/07/21 02:05:22;;;;;;;7.50;4.63;;;;;;;-145.18;100.00;46646.72;5072526;28;20705;-62
2023/07/21 02:07:48;;;;;;;6.93;4.50;;;;;;;-145.18;100.00;46644.78;5070856;28;20032;-62
2023/07/21 02:10:13;;;;;;;8.00;4.97;;;;;;;-145.18;100.00;46644.78;5072019;28;20024;-62
2023/07/21 02:12:39;;;;;;;8.47;4.93;;;;;;;-145.18;100.00;46642.81;5070381;28;20037;-62
2023/07/21 02:15:06;;;;;;;8.00;4.23;;;;;;;-145.18;100.00;46644.78;5071734;28;20388;-62
2023/07/21 02:17:33;;;;;;;6.20;4.67;;;;;;;-145.18;100.00;46642.81;5072111;28;20040;-62
2023/07/21 02:19:59;;;;;;;6.70;4.50;;;;;;;-145.18;100.00;46644.78;5071966;28;20455;-62
2023/07/21 02:22:25;;;;;;;5.57;3.87;;;;;;;-145.18;100.00;46644.78;5071930;28;20083;-62
2023/07/21 02:24:50;;;;;;;5.37;3.53;;;;;;;-145.18;100.00;46644.78;5071583;28;20036;-62
2023/07/21 02:27:15;;;;;;;7.07;3.77;;;;;;;-145.18;100.00;46644.78;5071511;28;20060;-62
2023/07/21 02:29:41;;;;;;;5.17;3.60;;;;;;;-145.18;100.00;46642.81;5072014;28;20080;-63
2023/07/21 02:32:07;;;;;;;4.60;3.70;;;;;;;-145.18;100.00;46652.59;5071467;27;20127;-62
2023/07/21 02:34:32;;;;;;;11.23;4.23;;;;;;;-145.18;100.00;46640.88;5070669;28;20032;-62
2023/07/21 02:36:57;;;;;;;4.70;3.90;;;;;;;-145.18;100.00;46642.81;5069828;28;20052;-62
2023/07/21 02:39:25;;;;;;;6.10;4.00;;;;;;;-145.18;100.00;46642.81;5071553;28;20047;-62
2023/07/21 02:41:50;;;;;;;6.40;4.83;;;;;;;-145.18;100.00;46648.69;5071685;28;20330;-62
2023/07/21 02:44:15;;;;;;;6.27;3.93;;;;;;;-145.18;100.00;46644.78;5071185;28;20047;-62
2023/07/21 02:46:41;;;;;;;8.10;4.93;;;;;;;-145.18;100.00;46642.81;5069023;28;20079;-62
2023/07/21 02:49:07;;;;;;;6.40;4.40;;;;;;;-145.18;100.00;46640.88;5067817;28;20047;-59
2023/07/21 02:51:33;;;;;;;10.70;5.70;;;;;;;-145.18;100.00;46642.81;5070073;28;20079;-59
2023/07/21 02:53:58;;;;;;;6.13;4.53;;;;;;;-145.18;100.00;46644.78;5070064;28;20115;-59
2023/07/21 02:56:24;;;;;;;5.30;3.90;;;;;;;-145.18;100.00;46640.88;5070964;28;20064;-59
2023/07/21 02:58:49;;;;;;;6.20;4.57;;;;;;;-145.18;100.00;46648.69;5070428;28;20032;-59
2023/07/21 03:01:15;;;;;;;7.33;4.70;;;;;;;-145.18;100.00;46642.81;5069826;28;20476;-59
2023/07/21 03:03:41;;;;;;;9.03;5.40;;;;;;;-145.18;100.00;46679.94;5071066;28;20032;-59
2023/07/21 03:06:07;;;;;;;6.43;4.90;;;;;;;-145.18;100.00;46644.78;5069691;28;20028;-59
2023/07/21 03:08:33;;;;;;;8.20;6.00;;;;;;;-145.18;100.00;46644.78;5071334;28;20043;-59
2023/07/21 03:10:59;;;;;;;8.70;6.53;;;;;;;-145.18;100.00;46642.81;5068726;28;20063;-59
2023/07/21 03:13:25;;;;;;;9.20;6.30;;;;;;;-145.18;100.00;46640.88;5068882;28;20064;-59
2023/07/21 03:15:54;;;;;;;8.23;6.37;;;;;;;-145.18;100.00;46638.91;5031139;28;20029;-59
2023/07/21 03:18:19;;;;;;;9.17;5.93;;;;;;;-145.18;100.00;46638.91;5070954;28;20036;-59
2023/07/21 03:20:44;;;;;;;7.93;5.27;;;;;;;-145.18;100.00;46636.94;5068541;28;20031;-59
2023/07/21 03:23:11;;;;;;;7.40;5.10;;;;;;;-145.18;100.00;46676.03;5068823;28;20040;-59
2023/07/21 03:25:41;;;;;;;9.13;4.47;;;;;;;-145.18;100.00;46642.81;5067606;28;20131;-59
2023/07/21 03:28:07;;;;;;;7.33;4.77;;;;;;;-145.18;100.00;46660.41;5068337;28;20139;-59
2023/07/21 03:30:32;;;;;;;5.00;3.70;;;;;;;-145.18;100.00;46640.88;5068065;28;20028;-59
2023/07/21 03:32:57;;;;;;;5.03;3.77;;;;;;;-145.18;100.00;46676.03;5070267;28;20032;-59
2023/07/21 03:35:23;;;;;;;5.63;4.03;;;;;;;-145.18;100.00;46642.81;5071169;28;20548;-59
2023/07/21 03:37:48;;;;;;;7.20;3.80;;;;;;;-145.18;100.00;46636.94;5069191;28;20052;-59
2023/07/21 03:40:13;;;;;;;5.90;4.40;;;;;;;-145.18;100.00;46660.41;5069511;28;20036;-59
2023/07/21 03:42:39;;;;;;;8.17;5.17;;;;;;;-145.18;100.00;46638.91;5069664;28;20036;-59
2023/07/21 03:45:05;;;;;;;6.43;4.80;;;;;;;-145.18;100.00;46640.88;5065207;28;20090;-59
2023/07/21 03:47:31;;;;;;;8.27;4.07;;;;;;;-145.18;100.00;46640.88;5072585;28;20040;-60
2023/07/21 03:49:58;;;;;;;6.50;4.60;;;;;;;-145.18;100.00;46648.69;5068736;28;20549;-59
2023/07/21 03:52:23;;;;;;;8.53;5.80;;;;;;;-145.18;100.00;46640.88;5070340;28;20112;-59
2023/07/21 03:54:48;;;;;;;8.87;5.23;;;;;;;-145.18;100.00;46677.97;5065082;28;20419;-59
2023/07/21 03:57:15;;;;;;;6.07;4.43;;;;;;;-145.18;100.00;46642.81;5071402;28;20045;-59
2023/07/21 03:59:41;;;;;;;8.63;4.27;;;;;;;-145.18;100.00;46644.78;5074749;28;20028;-59
2023/07/21 04:02:07;;;;;;;6.93;4.40;;;;;;;-145.18;100.00;46646.72;5073381;28;20055;-59
2023/07/21 04:04:33;;;;;;;7.73;5.33;;;;;;;-145.18;100.00;46646.72;5074697;28;20475;-59
2023/07/21 04:07:05;;;;;;;8.63;5.27;;;;;;;-145.18;100.00;46648.69;5074691;28;20025;-59
2023/07/21 04:09:34;;;;;;;7.07;4.73;;;;;;;-145.18;100.00;46650.63;5074227;28;20032;-59
2023/07/21 04:11:59;;;;;;;6.40;4.20;;;;;;;-145.18;100.00;46648.69;5074747;28;20033;-59
2023/07/21 04:14:25;;;;;;;8.33;5.07;;;;;;;-145.18;100.00;46650.63;5073121;28;20407;-59
2023/07/21 04:16:51;;;;;;;9.50;5.57;;;;;;;-145.18;100.00;46638.91;5070647;28;20032;-59
2023/07/21 04:19:17;;;;;;;8.53;5.80;;;;;;;-145.18;100.00;46650.63;5072257;28;20028;-59
2023/07/21 04:21:43;;;;;;;12.73;6.03;;;;;;;-145.18;100.00;46648.69;5074354;28;20044;-59
2023/07/21 04:24:10;;;;;;;7.33;5.30;;;;;;;-145.18;100.00;46648.69;5067809;28;20558;-59
2023/07/21 04:26:36;;;;;;;6.70;4.53;;;;;;;-145.18;100.00;46646.72;5072135;28;20036;-59
2023/07/21 04:29:02;;;;;;;8.20;4.50;;;;;;;-145.18;100.00;46646.72;5037900;28;20420;-59
2023/07/21 04:31:28;;;;;;;9.23;5.47;;;;;;;-145.18;100.00;46652.59;5074232;28;20032;-58
2023/07/21 04:33:55;;;;;;;8.30;5.80;;;;;;;-145.18;100.00;46644.78;5073161;28;20066;-59
2023/07/21 04:36:21;;;;;;;9.00;5.97;;;;;;;-145.18;100.00;46644.78;5070274;28;20106;-59
2023/07/21 04:38:47;;;;;;;12.20;5.73;;;;;;;-145.18;100.00;46646.72;5072809;28;20037;-59
2023/07/21 04:41:13;;;;;;;8.73;5.53;;;;;;;-145.18;100.00;46642.81;5073736;28;20068;-59
2023/07/21 04:43:39;;;;;;;13.17;7.17;;;;;;;-145.18;100.00;46644.78;5073870;28;20062;-59
2023/07/21 04:46:05;;;;;;;9.90;6.80;;;;;;;-145.18;100.00;46640.88;5074207;28;20020;-60
2023/07/21 04:48:30;;;;;;;10.77;6.77;;;;;;;-145.18;100.00;46640.88;5073831;28;20024;-59
2023/07/21 04:50:56;;;;;;;10.17;6.37;;;;;;;-145.18;100.00;46642.81;5073863;28;20043;-59
2023/07/21 04:53:23;;;;;;;11.07;8.27;;;;;;;-145.18;100.00;46644.78;5055951;28;20075;-59
2023/07/21 04:55:49;;;;;;;12.50;9.03;;;;;;;-145.18;100.00;46650.63;5073262;28;20025;-59
2023/07/21 04:58:15;;;;;;;15.10;8.63;;;;;;;-145.18;100.00;46642.81;5073933;28;20042;-58
2023/07/21 05:00:40;;;;;;;13.40;8.73;;;;;;;-145.18;100.00;46644.78;5073203;28;20024;-59
2023/07/21 05:03:05;;;;;;;12.80;8.73;;;;;;;-145.18;100.00;46640.88;5073265;28;20097;-59
2023/07/21 05:05:33;;;;;;;12.40;8.83;;;;;;;-145.18;100.00;46640.88;5073106;28;20047;-59
2023/07/21 05:07:59;;;;;;;12.83;8.60;;;;;;;-145.18;100.00;46640.88;5071221;28;20478;-59
2023/07/21 05:10:25;;;;;;;11.10;8.43;;;;;;;-145.18;100.00;46642.81;5072311;28;20492;-59
2023/07/21 05:12:51;;;;;;;12.10;7.70;;;;;;;-145.18;100.00;46644.78;5072801;28;20040;-58
2023/07/21 05:15:16;;;;;;;14.03;8.23;;;;;;;-145.18;100.00;46646.72;5072247;28;20044;-59
2023/07/21 05:17:42;;;;;;;11.13;7.63;;;;;;;-145.18;100.00;46646.72;5073667;28;20037;-59
2023/07/21 05:20:08;;;;;;;12.70;8.23;;;;;;;-145.18;100.00;46646.72;5071955;28;20131;-59
2023/07/21 05:22:34;;;;;;;10.70;7.23;;;;;;;-145.18;100.00;46648.69;5071611;28;20033;-59
2023/07/21 05:24:59;;;;;;;11.20;8.07;;;;;;;-145.18;100.00;46648.69;5070310;28;20078;-59
2023/07/21 05:27:24;;;;;;;11.73;8.40;;;;;;;-145.18;100.00;46650.63;5065727;28;20041;-59
2023/07/21 05:29:50;;;;;;;11.07;7.83;;;;;;;-145.18;100.00;46648.69;5053616;28;20412;-60
2023/07/21 05:32:15;;;;;;;10.23;7.97;;;;;;;-145.18;100.00;46646.72;5070232;28;20032;-60
2023/07/21 05:34:42;;;;;;;12.57;7.77;;;;;;;-145.18;100.00;46646.72;5072505;28;20025;-59
2023/07/21 05:37:08;;;;;;;9.43;7.23;;;;;;;-145.18;100.00;46652.59;5072601;28;20107;-60
2023/07/21 05:39:33;;;;;;;10.07;7.47;;;;;;;-145.18;100.00;46650.63;5072517;28;20123;-59
2023/07/21 05:41:59;;;;;;;8.43;6.53;;;;;;;-145.18;100.00;46650.63;5071381;28;20086;-60
2023/07/21 05:44:25;;;;;;;10.30;6.90;;;;;;;-145.18;100.00;46648.69;5072523;28;20039;-60
2023/07/21 05:46:50;;;;;;;10.23;7.03;;;;;;;-145.18;100.00;46650.63;5072534;28;20036;-60
2023/07/21 05:49:16;;;;;;;9.13;6.43;;;;;;;-145.18;100.00;46654.53;5072967;28;20043;-59
2023/07/21 05:51:42;;;;;;;11.10;7.03;;;;;;;-145.18;100.00;46656.50;5073002;28;20111;-60
2023/07/21 05:54:08;;;;;;;8.87;6.47;;;;;;;-145.18;100.00;46646.72;5072097;28;20408;-58
2023/07/21 05:56:34;;;;;;;8.87;6.60;;;;;;;-145.18;100.00;46650.63;5072751;28;20036;-58
2023/07/21 05:58:59;;;;;;;9.47;7.03;;;;;;;-145.18;100.00;46654.53;5071232;28;20488;-59
2023/07/21 06:01:27;;;;;;;8.53;6.20;;;;;;;-145.18;100.00;46654.53;5070159;28;20028;-59
2023/07/21 06:03:52;;;;;;;10.63;6.87;;;;;;;-145.18;100.00;46654.53;5070068;28;20020;-58
2023/07/21 06:06:17;;;;;;;9.13;6.33;;;;;;;-145.18;100.00;46660.41;5069767;28;20036;-58
2023/07/21 06:08:43;;;;;;;9.80;7.47;;;;;;;-145.18;100.00;46658.44;5067166;28;20063;-58
2023/07/21 06:11:09;;;;;;;11.27;7.23;;;;;;;-145.18;100.00;46656.50;5069969;28;20419;-58
2023/07/21 06:13:35;;;;;;;9.33;6.87;;;;;;;-145.18;100.00;46656.50;5071973;28;20107;-58
2023/07/21 06:16:01;;;;;;;11.17;6.90;;;;;;;-145.18;100.00;46662.34;5071978;28;20122;-59
2023/07/21 06:18:26;;;;;;;13.03;7.13;;;;;;;-145.18;100.00;46660.41;5071226;28;20119;-59
2023/07/21 06:20:55;;;;;;;11.10;7.80;;;;;;;-145.18;100.00;46662.34;5069333;28;20035;-58
2023/07/21 06:23:20;;;;;;;10.97;6.90;;;;;;;-145.18;100.00;46664.31;5071301;28;20369;-58
2023/07/21 06:25:46;;;;;;;11.03;7.20;;;;;;;-145.18;100.00;46668.22;5071465;28;20036;-59
2023/07/21 06:28:12;;;;;;;11.30;7.10;;;;;;;-145.18;100.00;46666.25;5067649;28;20049;-59
2023/07/21 06:30:38;;;;;;;9.87;6.90;;;;;;;-145.18;100.00;46672.13;5070593;28;20036;-59
2023/07/21 06:33:07;;;;;;;8.67;6.27;;;;;;;-145.18;100.00;46677.97;5073578;28;20540;-58
2023/07/21 06:35:33;;;;;;;7.40;5.80;;;;;;;-145.18;100.00;46676.03;5070477;28;20060;-59
2023/07/21 06:37:59;;;;;;;8.63;6.33;;;;;;;-145.18;100.00;46672.13;5071092;28;20028;-58
2023/07/21 06:40:25;;;;;;;9.77;6.33;;;;;;;-145.18;100.00;46677.97;5069625;28;20036;-58
2023/07/21 06:42:50;;;;;;;10.00;6.47;;;;;;;-145.18;100.00;46676.03;5071539;28;20134;-58
2023/07/21 06:45:16;;;;;;;10.30;6.07;;;;;;;-145.18;100.00;46672.13;5071323;28;20111;-59
2023/07/21 06:47:42;;;;;;;7.83;6.47;;;;;;;-145.18;100.00;46666.25;5053746;28;20103;-59
2023/07/21 06:50:08;;;;;;;12.50;6.77;;;;;;;-145.18;100.00;46658.44;5071811;28;20495;-59
2023/07/21 06:52:34;;;;;;;8.57;6.17;;;;;;;-145.18;100.00;46660.41;5071481;28;20036;-59
2023/07/21 06:55:00;;;;;;;6.93;4.97;;;;;;;-145.18;100.00;46623.28;5070148;28;20085;-59
2023/07/21 06:57:25;;;;;;;10.93;5.97;;;;;;;-145.18;100.00;46590.06;5069278;28;20479;-59
2023/07/21 06:59:50;;;;;;;10.40;5.40;;;;;;;-145.18;100.00;46578.34;5065043;28;20135;-59
2023/07/21 07:02:17;;;;;;;11.23;7.20;;;;;;;-145.18;100.00;46578.34;5067767;28;20044;-59
2023/07/21 07:04:43;;;;;;;7.63;5.80;;;;;;;-145.18;100.00;46552.97;5073212;28;20174;-59
2023/07/21 07:07:08;;;;;;;8.27;4.83;;;;;;;-145.18;100.00;46552.97;5071170;28;20500;-59
2023/07/21 07:09:34;;;;;;;7.53;4.73;;;;;;;-145.18;100.00;46554.91;5072225;28;20035;-58
2023/07/21 07:11:59;;;;;;;8.83;5.07;;;;;;;-145.18;100.00;46552.97;5071024;28;20043;-58
2023/07/21 07:14:25;;;;;;;7.07;5.00;;;;;;;-145.18;100.00;46549.06;5071268;28;20029;-59
2023/07/21 07:16:50;;;;;;;8.20;5.43;;;;;;;-145.18;100.00;46554.91;5070731;28;20134;-59
2023/07/21 07:19:17;;;;;;;6.90;5.10;;;;;;;-145.18;100.00;46549.06;5071122;28;20048;-59
2023/07/21 07:21:42;;;;;;;7.03;4.97;;;;;;;-145.18;100.00;46547.09;5071422;28;20117;-59
2023/07/21 07:24:09;;;;;;;8.43;5.37;;;;;;;-145.18;100.00;46551.00;5065090;28;20072;-59
2023/07/21 07:26:35;;;;;;;8.93;4.60;;;;;;;-145.18;100.00;46547.09;5070393;28;20114;-59
2023/07/21 07:29:03;;;;;;;6.90;4.60;;;;;;;-145.18;100.00;46547.09;5070659;28;20524;-62
2023/07/21 07:31:30;;;;;;;7.20;5.47;;;;;;;-145.18;100.00;46552.97;5061131;28;20055;-62
2023/07/21 07:33:55;;;;;;;7.10;5.30;;;;;;;-145.18;100.00;46543.19;5067792;28;20039;-62
2023/07/21 07:36:20;;;;;;;7.20;4.90;;;;;;;-145.18;100.00;46551.00;5069116;28;20404;-62
2023/07/21 07:38:46;;;;;;;7.83;5.00;;;;;;;-145.18;100.00;46547.09;5070717;28;20127;-62
2023/07/21 07:41:12;;;;;;;6.37;4.73;;;;;;;-145.18;100.00;46549.06;5072872;28;20044;-62
2023/07/21 07:43:38;;;;;;;7.43;5.43;;;;;;;-145.18;100.00;46543.19;5070547;28;20036;-62
2023/07/21 07:46:07;;;;;;;6.90;4.73;;;;;;;-145.18;100.00;46558.81;5070303;28;20036;-62
2023/07/21 07:48:33;;;;;;;5.63;4.43;;;;;;;-145.18;100.00;46551.00;5065549;28;20376;-62
2023/07/21 07:51:02;;;;;;;8.13;4.70;;;;;;;-145.18;100.00;46556.88;5070414;28;20029;-62
2023/07/21 07:53:28;;;;;;;7.13;4.83;;;;;;;-145.18;100.00;46554.91;5070870;28;20096;-62
2023/07/21 07:55:53;;;;;;;7.67;5.13;;;;;;;-145.18;100.00;46558.81;5070575;28;20047;-62
2023/07/21 07:58:19;;;;;;;7.03;4.87;;;;;;;-145.18;100.00;46551.00;5068732;28;20135;-62
2023/07/21 08:00:45;;;;;;;9.77;5.53;;;;;;;-145.18;100.00;46558.81;5070319;28;20041;-62
2023/07/21 08:03:11;;;;;;;6.40;4.50;;;;;;;-145.18;100.00;46556.88;5070232;28;20473;-62
2023/07/21 08:05:37;;;;;;;7.13;5.03;;;;;;;-145.18;100.00;46558.81;5069978;28;20035;-62
2023/07/21 08:08:04;;;;;;;6.50;5.10;;;;;;;-145.18;100.00;46564.69;5070613;28;20033;-62
2023/07/21 08:10:30;;;;;;;5.80;4.43;;;;;;;-145.18;100.00;46554.91;5070043;28;21076;-62
2023/07/21 08:12:56;;;;;;;6.70;5.07;;;;;;;-145.18;100.00;46554.91;5069047;28;20037;-62
2023/07/21 08:15:22;;;;;;;7.67;4.43;;;;;;;-145.18;100.00;46558.81;5069439;28;20032;-62
2023/07/21 08:17:48;;;;;;;6.00;5.00;;;;;;;-145.18;100.00;46549.06;5069153;28;20028;-62
2023/07/21 08:20:15;;;;;;;5.80;3.87;;;;;;;-145.18;100.00;46564.69;5070490;28;20059;-62
2023/07/21 08:22:40;;;;;;;6.10;4.00;;;;;;;-145.18;100.00;46552.97;5070004;28;20505;-62
2023/07/21 08:25:06;;;;;;;5.73;3.97;;;;;;;-145.18;100.00;46556.88;5067993;28;20033;-62
2023/07/21 08:27:34;;;;;;;5.00;3.40;;;;;;;-145.18;100.00;46554.91;5070062;28;20412;-62
2023/07/21 08:30:00;;;;;;;5.30;3.37;;;;;;;-145.18;100.00;46558.81;5070320;28;20025;-62
2023/07/21 08:32:25;;;;;;;4.33;3.10;;;;;;;-145.18;100.00;46552.97;5070371;28;20059;-62
2023/07/21 08:34:51;;;;;;;3.97;3.10;;;;;;;-145.18;100.00;46551.00;5068997;28;20020;-62
2023/07/21 08:37:16;;;;;;;5.87;3.30;;;;;;;-145.18;100.00;46554.91;5068240;28;20043;-62
2023/07/21 08:39:42;;;;;;;3.50;2.57;;;;;;;-145.18;100.00;46554.91;5069275;28;20377;-59
2023/07/21 08:42:12;;;;;;;3.87;2.57;;;;;;;-145.18;100.00;46580.31;5070039;28;20043;-60
2023/07/21 08:44:38;;;;;;;6.73;2.80;;;;;;;-145.18;100.00;46578.34;5072527;28;20111;-58
2023/07/21 08:47:04;;;;;;;3.77;2.50;;;;;;;-145.18;100.00;46580.31;5068343;28;20044;-58
2023/07/21 08:49:30;;;;;;;3.50;2.63;;;;;;;-145.18;100.00;46592.03;5072760;28;20407;-59
2023/07/21 08:51:55;;;;;;;3.63;2.33;;;;;;;-145.18;100.00;46617.41;5068363;28;20031;-59
2023/07/21 08:54:21;;;;;;;4.80;2.73;;;;;;;-145.18;100.00;46761.97;5067513;28;20020;-58
2023/07/21 08:56:46;;;;;;;8.63;2.70;;;;;;;-145.18;100.00;46736.56;5072159;28;20722;-59
2023/07/21 08:59:12;;;;;;;6.17;2.77;;;;;;;-145.18;100.00;46709.22;5071156;28;20039;-59
2023/07/21 09:01:37;;;;;;;5.07;2.80;;;;;;;-145.18;100.00;47006.16;5069236;28;20097;-59
2023/07/21 09:04:17;;;;;;;1.60;1.50;;;;;;;-145.18;100.00;47137.03;5063000;28;20082;-59
2023/07/21 09:06:48;;;;;;;3.70;2.30;;;;;;;-145.18;100.00;47168.28;5061888;28;20039;-59
2023/07/21 09:09:20;;;;;;;4.10;2.20;;;;;;;-145.18;100.00;47133.13;5066696;28;20047;-58
2023/07/21 09:11:47;;;;;;;2.70;1.67;;;;;;;-145.18;100.00;47117.50;5069598;28;20340;-59
2023/07/21 09:14:13;;;;;;;3.40;2.20;;;;;;;-145.18;100.00;47076.47;5063876;28;20024;-58
2023/07/21 09:16:39;;;;;;;4.23;2.70;;;;;;;-145.18;100.00;47058.91;5068138;28;20162;-59
2023/07/21 09:19:05;;;;;;;3.83;2.60;;;;;;;-145.18;100.00;47113.59;5062879;28;20373;-59
2023/07/21 09:21:31;;;;;;;3.10;1.80;;;;;;;-145.18;100.00;47125.31;5071517;28;20032;-59
2023/07/21 09:24:06;;;;;;;2.20;1.90;;;;;;;-145.18;100.00;47115.56;5073128;28;20536;-59
2023/07/21 09:26:32;;;;;;;3.50;2.63;;;;;;;-145.18;100.00;47105.78;5071486;28;20060;-59
2023/07/21 09:28:58;;;;;;;3.23;2.33;;;;;;;-145.18;100.00;47131.19;5071178;28;20056;-58
2023/07/21 09:31:33;;;;;;;4.83;1.97;;;;;;;-145.18;100.00;47082.34;5072217;28;20037;-58
2023/07/21 09:34:11;;;;;;;6.47;2.20;;;;;;;-145.18;100.00;47099.91;5072894;28;20021;-59
2023/07/21 09:36:44;;;;;;;2.87;2.20;;;;;;;-145.18;100.00;47074.53;5073344;28;20094;-58
2023/07/21 09:39:14;;;;;;;4.60;3.37;;;;;;;-145.18;100.00;47068.66;5072123;28;20028;-59
2023/07/21 09:41:40;;;;;;;2.77;2.27;;;;;;;-145.18;100.00;47092.09;5072232;28;20044;-59
2023/07/21 09:44:06;;;;;;;2.80;2.30;;;;;;;-145.18;100.00;47070.63;5072485;28;20040;-59
2023/07/21 09:46:32;;;;;;;5.30;3.50;;;;;;;-145.18;100.00;47090.16;5071490;28;20040;-58
2023/07/21 09:48:58;;;;;;;3.83;3.40;;;;;;;-145.18;100.00;47105.78;5068217;28;20492;-62
2023/07/21 09:51:26;;;;;;;9.73;3.37;;;;;;;-145.18;100.00;47096.00;5070786;28;20043;-62
2023/07/21 09:53:53;;;;;;;3.40;3.00;;;;;;;-145.18;100.00;47074.53;5070150;28;20029;-62
2023/07/21 09:56:20;;;;;;;4.53;2.50;;;;;;;-145.18;100.00;47105.78;5066943;28;20040;-62
2023/07/21 09:58:51;;;;;;;3.67;2.40;;;;;;;-145.18;100.00;47072.56;5072301;28;20028;-62
2023/07/21 10:01:18;;;;;;;4.10;3.13;;;;;;;-145.18;100.00;47033.50;5067289;28;20029;-61
2023/07/21 10:03:44;;;;;;;3.10;2.70;;;;;;;-145.18;100.00;47056.94;5070301;28;20438;-62
2023/07/21 10:06:10;;;;;;;4.40;1.73;;;;;;;-145.18;100.00;47043.28;5069331;28;20032;-61
2023/07/21 10:08:38;;;;;;;3.67;3.10;;;;;;;-145.18;100.00;47045.22;5070700;28;20034;-62
2023/07/21 10:11:06;;;;;;;4.53;3.63;;;;;;;-145.18;100.00;47056.94;5072072;28;20132;-61
2023/07/21 10:13:34;;;;;;;5.87;3.10;;;;;;;-145.18;100.00;47041.31;5072072;28;20052;-61
2023/07/21 10:16:07;;;;;;;5.07;3.07;;;;;;;-145.18;100.00;47037.41;5071772;28;20067;-62
2023/07/21 10:18:33;;;;;;;4.17;3.17;;;;;;;-145.18;100.00;47070.63;5071045;28;20024;-61
2023/07/21 10:20:58;;;;;;;7.33;3.57;;;;;;;-145.18;100.00;47086.25;5072731;28;20085;-61
2023/07/21 10:23:25;;;;;;;5.60;3.70;;;;;;;-145.18;100.00;47080.38;5058919;28;20373;-62
2023/07/21 10:25:50;;;;;;;4.73;3.63;;;;;;;-145.18;100.00;47021.78;5066281;28;20032;-62
2023/07/21 10:28:22;;;;;;;4.70;3.33;;;;;;;-145.18;100.00;47035.44;5067124;28;20051;-62
2023/07/21 10:30:48;;;;;;;4.90;3.80;;;;;;;-145.18;100.00;47055.00;5066301;28;20420;-62
2023/07/21 10:33:17;;;;;;;4.43;3.27;;;;;;;-145.18;100.00;47072.56;5065962;28;20021;-62
2023/07/21 10:35:42;;;;;;;4.40;3.17;;;;;;;-145.18;100.00;47084.28;5070512;28;20073;-62
2023/07/21 10:38:13;;;;;;;5.00;3.97;;;;;;;-145.18;100.00;47094.06;5068568;28;20020;-61
2023/07/21 10:40:41;;;;;;;4.77;3.73;;;;;;;-145.18;100.00;47080.38;5065247;28;20033;-61
2023/07/21 10:43:06;;;;;;;8.93;4.47;;;;;;;-145.18;100.00;47086.25;5067794;28;20104;-62
2023/07/21 10:45:31;;;;;;;13.60;5.97;;;;;;;-145.18;100.00;47066.72;5064185;28;20136;-62
2023/07/21 10:48:11;;;;;;;5.17;4.33;;;;;;;-145.18;100.00;47058.91;5066290;28;20035;-62
2023/07/21 10:50:39;;;;;;;5.00;3.80;;;;;;;-145.18;100.00;47064.75;5068683;28;20024;-61
2023/07/21 10:53:05;;;;;;;4.60;3.80;;;;;;;-145.18;100.00;47070.63;5067383;28;20024;-62
2023/07/21 10:55:31;;;;;;;5.33;2.80;;;;;;;-145.18;100.00;47068.66;5069680;28;20480;-61
2023/07/21 10:57:56;;;;;;;4.13;2.80;;;;;;;-145.18;100.00;47060.84;5069242;28;20085;-58
2023/07/21 11:00:22;;;;;;;4.60;2.70;;;;;;;-145.18;100.00;47047.19;5070127;28;20032;-58
2023/07/21 11:02:53;;;;;;;3.13;2.57;;;;;;;-145.18;100.00;47055.00;5067733;28;20492;-58